createdAt,value
2019-05-02T00:01:41.059Z,8.08
2019-05-02T00:04:12.513Z,8.05
2019-05-02T00:06:46.431Z,8.07
2019-05-02T00:09:16.913Z,8.21
2019-05-02T00:11:58.295Z,8.24
2019-05-02T00:14:19.593Z,8.04
2019-05-02T00:16:50.511Z,8.00
2019-05-02T00:19:21.083Z,7.99
2019-05-02T00:21:51.545Z,8.03
2019-05-02T00:24:22.089Z,7.99
2019-05-02T00:26:56.050Z,8.02
2019-05-02T00:29:25.055Z,7.99
2019-05-02T00:31:55.574Z,8.07
2019-05-02T00:34:26.029Z,8.04
2019-05-02T00:36:56.491Z,8.05
2019-05-02T00:39:26.989Z,7.97
2019-05-02T00:41:57.437Z,7.93
2019-05-02T00:44:27.902Z,7.95
2019-05-02T00:47:06.073Z,8.02
2019-05-02T00:49:36.668Z,8.01
2019-05-02T00:52:07.292Z,7.91
2019-05-02T00:54:37.828Z,7.92
2019-05-02T00:57:08.202Z,7.92
2019-05-02T00:59:42.426Z,7.85
2019-05-02T01:02:26.419Z,7.82
2019-05-02T01:04:59.258Z,7.85
2019-05-02T01:07:29.183Z,7.79
2019-05-02T01:09:59.674Z,7.74
2019-05-02T01:12:30.263Z,7.76
2019-05-02T01:15:03.452Z,7.77
2019-05-02T01:17:32.939Z,7.75
2019-05-02T01:20:03.453Z,7.76
2019-05-02T01:22:33.970Z,7.78
2019-05-02T01:25:04.616Z,7.85
2019-05-02T01:27:54.026Z,7.84
2019-05-02T01:30:46.239Z,7.88
2019-05-02T01:33:41.656Z,7.91
2019-05-02T01:36:15.536Z,8.00
2019-05-02T01:38:48.293Z,8.01
2019-05-02T01:41:18.759Z,8.10
2019-05-02T01:43:49.234Z,8.07
2019-05-02T01:46:22.330Z,8.13
2019-05-02T01:48:51.914Z,8.13
2019-05-02T01:51:22.425Z,8.16
2019-05-02T01:53:52.945Z,8.18
2019-05-02T01:56:23.447Z,8.12
2019-05-02T01:58:57.694Z,8.26
2019-05-02T02:01:26.145Z,8.21
2019-05-02T02:03:56.634Z,8.16
2019-05-02T02:06:27.124Z,8.15
2019-05-02T02:08:57.708Z,8.15
2019-05-02T02:11:33.449Z,8.21
2019-05-02T02:14:00.407Z,8.22
2019-05-02T02:16:35.314Z,8.31
2019-05-02T02:19:10.655Z,8.41
2019-05-02T02:22:03.007Z,8.29
2019-05-02T02:24:36.917Z,8.30
2019-05-02T02:27:07.462Z,8.40
2019-05-02T02:29:38.997Z,8.38
2019-05-02T02:32:10.478Z,8.46
2019-05-02T02:34:41.010Z,8.37
2019-05-02T02:37:14.652Z,8.38
2019-05-02T02:39:48.551Z,8.44
2019-05-02T02:42:15.915Z,8.46
2019-05-02T02:44:55.048Z,8.48
2019-05-02T02:47:25.558Z,8.45
2019-05-02T02:50:02.719Z,8.55
2019-05-02T02:52:28.260Z,8.51
2019-05-02T02:54:58.830Z,8.46
2019-05-02T02:57:29.261Z,8.45
2019-05-02T03:00:07.533Z,8.52
2019-05-02T03:02:32.028Z,8.54
2019-05-02T03:05:02.490Z,8.49
2019-05-02T03:07:32.980Z,8.57
2019-05-02T03:10:06.276Z,8.59
2019-05-02T03:12:57.974Z,8.54
2019-05-02T03:15:30.602Z,8.53
2019-05-02T03:18:02.126Z,8.59
2019-05-02T03:20:40.070Z,8.62
2019-05-02T03:23:05.993Z,8.64
2019-05-02T03:25:49.747Z,8.59
2019-05-02T03:28:17.800Z,8.66
2019-05-02T03:30:40.908Z,8.66
2019-05-02T03:33:12.510Z,8.76
2019-05-02T03:35:48.768Z,8.73
2019-05-02T03:38:16.457Z,8.74
2019-05-02T03:40:46.944Z,8.77
2019-05-02T03:43:19.111Z,8.75
2019-05-02T03:45:49.723Z,8.82
2019-05-02T03:48:25.765Z,8.78
2019-05-02T03:50:52.422Z,8.80
2019-05-02T03:53:25.206Z,8.84
2019-05-02T03:55:55.657Z,8.80
2019-05-02T03:58:26.500Z,8.85
2019-05-02T04:01:01.544Z,8.86
2019-05-02T04:03:34.321Z,8.91
2019-05-02T04:06:02.340Z,8.84
2019-05-02T04:08:34.206Z,8.97
2019-05-02T04:11:37.874Z,8.87
2019-05-02T04:13:59.860Z,8.85
2019-05-02T04:16:31.522Z,8.90
2019-05-02T04:19:03.750Z,8.94
2019-05-02T04:21:36.501Z,8.92
2019-05-02T04:24:13.671Z,8.86
2019-05-02T04:26:52.057Z,8.92
2019-05-02T04:29:13.319Z,8.89
2019-05-02T04:31:43.732Z,8.88
2019-05-02T04:34:17.476Z,8.90
2019-05-02T04:36:47.240Z,8.91
2019-05-02T04:39:21.593Z,8.90
2019-05-02T04:41:50.879Z,8.97
2019-05-02T04:44:21.390Z,9.01
2019-05-02T04:46:51.903Z,8.96
2019-05-02T04:49:32.817Z,8.93
2019-05-02T04:52:04.787Z,8.91
2019-05-02T04:54:31.825Z,8.89
2019-05-02T04:57:02.356Z,8.93
2019-05-02T04:59:33.285Z,8.93
2019-05-02T05:02:03.514Z,8.87
2019-05-02T05:04:42.292Z,8.97
2019-05-02T05:07:09.093Z,8.96
2019-05-02T05:09:39.938Z,8.96
2019-05-02T05:12:11.020Z,8.96
2019-05-02T05:14:43.311Z,8.93
2019-05-02T05:17:13.680Z,8.97
2019-05-02T05:19:44.219Z,8.94
2019-05-02T05:22:14.669Z,8.95
2019-05-02T05:24:52.365Z,8.94
2019-05-02T05:27:23.182Z,8.94
2019-05-02T05:29:58.854Z,8.88
2019-05-02T05:32:28.057Z,8.99
2019-05-02T05:35:03.197Z,9.09
2019-05-02T05:37:30.455Z,9.08
2019-05-02T05:40:00.950Z,9.14
2019-05-02T05:42:33.442Z,9.05
2019-05-02T05:45:08.993Z,9.06
2019-05-02T05:47:37.828Z,9.09
2019-05-02T05:50:09.038Z,9.09
2019-05-02T05:52:42.407Z,9.07
2019-05-02T05:55:12.804Z,9.06
2019-05-02T05:57:44.015Z,9.07
2019-05-02T06:00:18.736Z,9.13
2019-05-02T06:02:53.722Z,9.13
2019-05-02T06:05:19.878Z,9.25
2019-05-02T06:07:50.332Z,9.22
2019-05-02T06:10:20.704Z,9.24
2019-05-02T06:12:51.112Z,9.34
2019-05-02T06:15:21.612Z,9.39
2019-05-02T06:17:52.141Z,9.40
2019-05-02T06:20:25.668Z,9.33
2019-05-02T06:22:59.734Z,9.30
2019-05-02T06:25:34.401Z,9.27
2019-05-02T06:28:00.290Z,9.27
2019-05-02T06:30:32.389Z,9.29
2019-05-02T06:33:02.976Z,9.25
2019-05-02T06:35:33.432Z,9.42
2019-05-02T06:38:03.903Z,9.32
2019-05-02T06:40:34.420Z,9.31
2019-05-02T06:43:09.695Z,9.39
2019-05-02T06:45:39.316Z,9.35
2019-05-02T06:48:16.779Z,9.32
2019-05-02T06:50:41.531Z,9.37
2019-05-02T06:53:12.020Z,9.32
2019-05-02T06:55:42.505Z,9.39
2019-05-02T06:58:12.998Z,9.35
2019-05-02T07:00:56.470Z,9.38
2019-05-02T07:03:16.179Z,9.38
2019-05-02T07:05:49.038Z,9.33
2019-05-02T07:08:19.086Z,9.29
2019-05-02T07:10:49.839Z,9.35
2019-05-02T07:13:20.358Z,9.27
2019-05-02T07:15:58.303Z,9.27
2019-05-02T07:18:30.467Z,9.23
2019-05-02T07:21:01.431Z,9.29
2019-05-02T07:23:32.169Z,9.30
2019-05-02T07:26:02.733Z,9.22
2019-05-02T07:28:33.180Z,9.21
2019-05-02T07:31:06.587Z,9.13
2019-05-02T07:33:37.551Z,9.13
2019-05-02T07:36:08.171Z,9.12
2019-05-02T07:38:38.637Z,9.04
2019-05-02T07:41:09.126Z,8.98
2019-05-02T07:43:39.584Z,8.98
2019-05-02T07:46:10.054Z,8.96
2019-05-02T07:48:43.540Z,8.98
2019-05-02T07:51:17.333Z,8.99
2019-05-02T07:53:48.482Z,9.08
2019-05-02T07:56:19.008Z,9.04
2019-05-02T07:58:49.540Z,9.14
2019-05-02T08:01:20.088Z,9.10
2019-05-02T08:03:50.556Z,8.97
2019-05-02T08:06:34.344Z,9.08
2019-05-02T08:08:53.283Z,9.08
2019-05-02T08:11:23.741Z,9.08
2019-05-02T08:13:55.502Z,9.12
2019-05-02T08:16:27.336Z,9.02
2019-05-02T08:19:01.301Z,9.05
2019-05-02T08:21:32.606Z,8.93
2019-05-02T08:24:03.682Z,8.99
2019-05-02T08:27:02.288Z,8.97
2019-05-02T08:29:32.956Z,8.89
2019-05-02T08:32:03.430Z,8.99
2019-05-02T08:34:33.930Z,8.83
2019-05-02T08:37:04.990Z,8.87
2019-05-02T08:39:35.584Z,8.85
2019-05-02T08:42:06.624Z,8.73
2019-05-02T08:44:49.635Z,8.75
2019-05-02T08:47:48.880Z,8.84
2019-05-02T08:50:19.354Z,8.79
2019-05-02T08:52:49.820Z,8.75
2019-05-02T08:55:20.267Z,8.75
2019-05-02T08:57:50.738Z,8.73
2019-05-02T09:00:21.205Z,8.86
2019-05-02T09:02:51.705Z,8.89
2019-05-02T09:05:22.155Z,8.89
2019-05-02T09:07:52.667Z,8.99
2019-05-02T09:10:23.139Z,9.09
2019-05-02T09:12:53.576Z,9.22
2019-05-02T09:15:24.071Z,9.23
2019-05-02T09:17:56.481Z,9.14
2019-05-02T09:20:26.740Z,9.28
2019-05-02T09:22:57.271Z,9.32
2019-05-02T09:25:27.955Z,9.28
2019-05-02T09:27:58.463Z,9.09
2019-05-02T09:30:29.139Z,9.20
2019-05-02T09:33:04.842Z,9.15
2019-05-02T09:35:32.830Z,9.16
2019-05-02T09:38:03.444Z,9.31
2019-05-02T09:40:33.950Z,9.21
2019-05-02T09:43:04.888Z,9.26
2019-05-02T09:45:37.308Z,9.29
2019-05-02T09:48:08.412Z,9.30
2019-05-02T09:50:38.868Z,9.46
2019-05-02T09:53:13.006Z,9.32
2019-05-02T09:55:49.554Z,9.39
2019-05-02T09:58:19.452Z,9.37
2019-05-02T10:01:06.878Z,9.45
2019-05-02T10:03:37.449Z,9.40
2019-05-02T10:06:08.433Z,9.35
2019-05-02T10:08:43.431Z,9.40
2019-05-02T10:11:16.636Z,9.33
2019-05-02T10:13:44.772Z,9.44
2019-05-02T10:16:17.921Z,9.46
2019-05-02T10:18:47.440Z,9.63
2019-05-02T10:21:17.997Z,9.81
2019-05-02T10:23:51.746Z,9.96
2019-05-02T10:26:24.582Z,9.91
2019-05-02T10:28:53.446Z,9.92
2019-05-02T10:31:27.488Z,9.83
2019-05-02T10:33:56.172Z,9.87
2019-05-02T10:36:26.751Z,10.02
2019-05-02T10:38:59.236Z,10.18
2019-05-02T10:41:33.560Z,10.20
2019-05-02T10:44:02.228Z,10.04
2019-05-02T10:46:38.677Z,9.98
2019-05-02T10:49:18.650Z,9.99
2019-05-02T10:51:51.821Z,9.89
2019-05-02T10:54:23.102Z,9.76
2019-05-02T10:56:53.876Z,9.76
2019-05-02T10:59:24.393Z,9.77
2019-05-02T11:02:06.151Z,9.85
2019-05-02T11:04:39.690Z,9.91
2019-05-02T11:07:11.963Z,9.92
2019-05-02T11:09:42.602Z,9.92
2019-05-02T11:12:16.431Z,9.83
2019-05-02T11:14:53.954Z,9.87
2019-05-02T11:17:29.278Z,9.85
2019-05-02T11:20:08.302Z,9.85
2019-05-02T11:22:38.871Z,9.85
2019-05-02T11:25:09.504Z,9.78
2019-05-02T11:27:41.799Z,9.92
2019-05-02T11:30:16.886Z,9.99
2019-05-02T11:32:45.858Z,10.02
2019-05-02T11:35:16.325Z,10.16
2019-05-02T11:37:46.832Z,10.17
2019-05-02T11:40:17.462Z,10.14
2019-05-02T11:42:48.661Z,10.06
2019-05-02T11:45:19.164Z,10.15
2019-05-02T11:47:49.727Z,10.07
2019-05-02T11:50:22.038Z,10.02
2019-05-02T11:52:52.515Z,10.04
2019-05-02T11:55:27.368Z,10.09
2019-05-02T11:57:55.390Z,10.02
2019-05-02T12:00:25.869Z,10.12
2019-05-02T12:03:17.424Z,10.17
2019-05-02T12:05:47.946Z,10.27
2019-05-02T12:08:18.429Z,10.25
2019-05-02T12:10:49.078Z,10.32
2019-05-02T12:13:19.593Z,10.33
2019-05-02T12:15:51.919Z,10.36
2019-05-02T12:18:23.331Z,10.46
2019-05-02T12:20:53.963Z,10.43
2019-05-02T12:23:24.480Z,10.59
2019-05-02T12:25:55.194Z,10.69
2019-05-02T12:28:25.690Z,10.59
2019-05-02T12:30:56.204Z,10.65
2019-05-02T12:33:29.393Z,10.65
2019-05-02T12:35:59.896Z,10.61
2019-05-02T12:38:32.347Z,10.60
2019-05-02T12:41:02.802Z,10.53
2019-05-02T12:43:33.293Z,10.51
2019-05-02T12:46:03.844Z,10.48
2019-05-02T12:48:34.360Z,10.54
2019-05-02T12:51:04.903Z,10.62
2019-05-02T12:53:35.380Z,10.65
2019-05-02T12:56:05.892Z,10.73
2019-05-02T12:58:36.398Z,10.79
2019-05-02T13:01:06.965Z,10.78
2019-05-02T13:03:55.101Z,10.86
2019-05-02T13:06:25.773Z,10.82
2019-05-02T13:08:56.250Z,10.92
2019-05-02T13:11:36.837Z,10.92
2019-05-02T13:14:18.519Z,10.86
2019-05-02T13:16:40.447Z,10.86
2019-05-02T13:19:11.955Z,10.82
2019-05-02T13:22:13.663Z,10.86
2019-05-02T13:25:03.141Z,10.88
2019-05-02T13:27:43.383Z,10.97
2019-05-02T13:30:10.071Z,10.95
2019-05-02T13:32:42.983Z,10.86
2019-05-02T13:35:24.751Z,10.80
2019-05-02T13:37:57.835Z,10.83
2019-05-02T13:40:33.123Z,10.85
2019-05-02T13:43:03.654Z,10.89
2019-05-02T13:45:53.203Z,11.09
2019-05-02T13:48:23.735Z,11.28
2019-05-02T13:50:54.341Z,11.41
2019-05-02T13:53:24.957Z,11.53
2019-05-02T13:56:15.098Z,11.67
2019-05-02T13:58:45.675Z,11.64
2019-05-02T14:01:17.739Z,11.63
2019-05-02T14:03:48.335Z,11.61
2019-05-02T14:06:22.032Z,11.50
2019-05-02T14:08:59.828Z,11.48
2019-05-02T14:11:44.385Z,11.40
2019-05-02T14:14:14.864Z,11.37
2019-05-02T14:16:45.382Z,11.33
2019-05-02T14:19:15.891Z,11.36
2019-05-02T14:21:46.380Z,11.35
2019-05-02T14:24:18.561Z,11.33
2019-05-02T14:26:49.091Z,11.45
2019-05-02T14:29:19.566Z,11.48
2019-05-02T14:31:51.819Z,11.49
2019-05-02T14:34:28.177Z,11.56
2019-05-02T14:36:59.458Z,11.61
2019-05-02T14:39:32.476Z,11.72
2019-05-02T14:42:03.020Z,11.73
2019-05-02T14:45:01.397Z,11.69
2019-05-02T14:47:10.075Z,11.74
2019-05-02T14:49:38.332Z,11.71
2019-05-02T14:52:08.918Z,11.75
2019-05-02T14:54:43.865Z,11.78
2019-05-02T14:57:17.264Z,11.71
2019-05-02T14:59:50.463Z,11.68
2019-05-02T15:02:53.603Z,11.58
2019-05-02T15:05:29.585Z,11.41
2019-05-02T15:08:01.197Z,11.30
2019-05-02T15:10:28.795Z,11.22
2019-05-02T15:13:00.105Z,11.05
2019-05-02T15:15:33.631Z,11.01
2019-05-02T15:18:07.992Z,10.89
2019-05-02T15:20:39.296Z,11.01
2019-05-02T15:23:14.460Z,11.05
2019-05-02T15:25:42.354Z,11.09
2019-05-02T15:28:19.487Z,11.03
2019-05-02T15:31:05.075Z,10.78
2019-05-02T15:33:42.057Z,10.58
2019-05-02T15:36:12.429Z,10.45
2019-05-02T15:38:47.352Z,10.33
2019-05-02T15:41:15.512Z,10.22
2019-05-02T15:43:49.246Z,10.14
2019-05-02T15:46:23.831Z,9.93
2019-05-02T15:48:51.985Z,9.75
2019-05-02T15:51:23.086Z,9.59
2019-05-02T15:54:06.023Z,9.45
2019-05-02T15:56:32.328Z,9.28
2019-05-02T15:59:06.183Z,9.23
2019-05-02T16:01:48.097Z,9.20
2019-05-02T16:04:24.065Z,9.27
2019-05-02T16:06:53.105Z,9.27
2019-05-02T16:09:23.633Z,9.20
2019-05-02T16:11:56.919Z,9.02
2019-05-02T16:14:27.036Z,8.89
2019-05-02T16:17:01.057Z,8.79
2019-05-02T16:19:32.992Z,8.71
2019-05-02T16:22:17.289Z,8.61
2019-05-02T16:24:51.014Z,8.51
2019-05-02T16:27:25.855Z,8.34
2019-05-02T16:29:58.269Z,8.29
2019-05-02T16:32:38.487Z,8.15
2019-05-02T16:35:13.556Z,7.94
2019-05-02T16:37:42.080Z,7.80
2019-05-02T16:40:13.523Z,7.70
2019-05-02T16:42:44.035Z,7.71
2019-05-02T16:45:16.495Z,7.69
2019-05-02T16:47:49.783Z,7.68
2019-05-02T16:50:19.570Z,7.82
2019-05-02T16:52:53.329Z,7.77
2019-05-02T16:55:26.596Z,7.86
2019-05-02T16:58:05.287Z,7.83
2019-05-02T17:00:29.504Z,7.77
2019-05-02T17:03:03.515Z,7.80
2019-05-02T17:05:32.582Z,7.89
2019-05-02T17:08:22.557Z,7.81
2019-05-02T17:10:57.165Z,7.85
2019-05-02T17:13:32.074Z,7.81
2019-05-02T17:16:04.926Z,7.91
2019-05-02T17:18:32.706Z,7.89
2019-05-02T17:21:03.315Z,7.91
2019-05-02T17:23:37.521Z,7.93
2019-05-02T17:26:06.049Z,7.93
2019-05-02T17:28:37.966Z,7.96
2019-05-02T17:31:10.774Z,7.96
2019-05-02T17:33:41.697Z,8.02
2019-05-02T17:36:12.490Z,8.09
2019-05-02T17:38:42.961Z,8.04
2019-05-02T17:41:13.427Z,8.05
2019-05-02T17:43:43.980Z,8.04
2019-05-02T17:46:18.287Z,8.07
2019-05-02T17:48:47.700Z,8.10
2019-05-02T17:51:44.090Z,8.11
2019-05-02T17:54:17.453Z,8.19
2019-05-02T17:56:47.113Z,8.22
2019-05-02T17:59:17.599Z,8.20
2019-05-02T18:01:48.104Z,8.19
2019-05-02T18:04:18.920Z,8.28
2019-05-02T18:06:52.328Z,8.28
2019-05-02T18:09:21.731Z,8.21
2019-05-02T18:11:52.197Z,8.23
2019-05-02T18:14:24.083Z,8.26
2019-05-02T18:16:55.682Z,8.30
2019-05-02T18:19:26.489Z,8.28
2019-05-02T18:21:58.098Z,8.28
2019-05-02T18:24:29.398Z,8.21
2019-05-02T18:26:59.857Z,8.16
2019-05-02T18:29:36.225Z,8.08
2019-05-02T18:32:04.623Z,8.10
2019-05-02T18:34:35.144Z,8.15
2019-05-02T18:37:06.412Z,8.08
2019-05-02T18:39:44.730Z,8.10
2019-05-02T18:42:09.311Z,8.10
2019-05-02T18:44:39.832Z,8.11
2019-05-02T18:47:12.523Z,8.08
2019-05-02T18:49:42.623Z,8.16
2019-05-02T18:52:13.436Z,8.17
2019-05-02T18:54:51.663Z,8.17
2019-05-02T18:57:25.966Z,8.13
2019-05-02T18:59:56.481Z,8.29
2019-05-02T19:02:32.555Z,8.13
2019-05-02T19:04:59.078Z,8.15
2019-05-02T19:07:33.059Z,8.12
2019-05-02T19:10:05.701Z,8.17
2019-05-02T19:12:34.181Z,8.12
2019-05-02T19:15:07.027Z,8.09
2019-05-02T19:17:39.218Z,8.07
2019-05-02T19:20:39.264Z,8.11
2019-05-02T19:23:09.872Z,8.05
2019-05-02T19:25:40.397Z,8.04
2019-05-02T19:28:17.473Z,8.00
2019-05-02T19:30:48.068Z,8.03
2019-05-02T19:33:20.994Z,8.03
2019-05-02T19:35:52.612Z,7.96
2019-05-02T19:38:26.234Z,7.90
2019-05-02T19:40:58.137Z,7.85
2019-05-02T19:43:28.132Z,7.81
2019-05-02T19:45:58.855Z,7.76
2019-05-02T19:48:32.901Z,7.81
2019-05-02T19:51:02.454Z,7.78
2019-05-02T19:53:34.283Z,7.67
2019-05-02T19:56:06.768Z,7.75
2019-05-02T19:58:42.737Z,7.79
2019-05-02T20:01:09.780Z,7.79
2019-05-02T20:03:42.299Z,7.74
2019-05-02T20:06:12.901Z,7.68
2019-05-02T20:08:43.462Z,7.67
2019-05-02T20:11:14.255Z,7.63
2019-05-02T20:13:44.803Z,7.46
2019-05-02T20:16:26.568Z,7.52
2019-05-02T20:18:57.022Z,7.46
2019-05-02T20:21:48.062Z,7.38
2019-05-02T20:24:19.572Z,7.33
2019-05-02T20:26:52.405Z,7.37
2019-05-02T20:29:22.434Z,7.31
2019-05-02T20:31:53.004Z,7.31
2019-05-02T20:34:23.569Z,7.27
2019-05-02T20:36:54.416Z,7.29
2019-05-02T20:39:24.879Z,7.29
2019-05-02T20:41:55.397Z,7.20
2019-05-02T20:44:25.934Z,7.08
2019-05-02T20:46:56.404Z,7.15
2019-05-02T20:49:26.904Z,7.03
2019-05-02T20:51:57.543Z,7.01
2019-05-02T20:54:28.155Z,6.96
2019-05-02T20:56:58.636Z,6.87
2019-05-02T20:59:29.164Z,6.89
2019-05-02T21:02:01.573Z,6.87
2019-05-02T21:04:31.969Z,6.78
2019-05-02T21:07:10.627Z,6.74
2019-05-02T21:10:01.940Z,6.74
2019-05-02T21:12:32.574Z,6.75
2019-05-02T21:15:03.074Z,6.67
2019-05-02T21:17:33.577Z,6.67
2019-05-02T21:20:04.560Z,6.60
2019-05-02T21:22:36.429Z,6.52
2019-05-02T21:25:07.512Z,6.45
2019-05-02T21:27:38.063Z,6.43
2019-05-02T21:30:09.736Z,6.46
2019-05-02T21:32:40.242Z,6.37
2019-05-02T21:35:11.880Z,6.40
2019-05-02T21:37:42.581Z,6.31
2019-05-02T21:40:13.467Z,6.28
2019-05-02T21:42:43.951Z,6.18
2019-05-02T21:45:15.371Z,6.22
2019-05-02T21:47:45.869Z,6.10
2019-05-02T21:50:26.808Z,6.09
2019-05-02T21:53:19.065Z,6.00
2019-05-02T21:56:07.730Z,5.98
2019-05-02T21:58:38.265Z,5.94
2019-05-02T22:01:12.910Z,5.94
2019-05-02T22:03:43.420Z,5.88
2019-05-02T22:06:13.877Z,5.79
2019-05-02T22:08:44.332Z,5.84
2019-05-02T22:11:14.878Z,5.79
2019-05-02T22:13:45.363Z,5.72
2019-05-02T22:16:15.812Z,5.70
2019-05-02T22:18:46.323Z,5.64
2019-05-02T22:21:16.792Z,5.58
2019-05-02T22:23:47.254Z,5.50
2019-05-02T22:26:17.768Z,5.51
2019-05-02T22:28:48.302Z,5.46
2019-05-02T22:31:18.763Z,5.40
2019-05-02T22:33:49.285Z,5.43
2019-05-02T22:36:21.741Z,5.34
2019-05-02T22:38:56.802Z,5.34
2019-05-02T22:41:27.272Z,5.27
2019-05-02T22:43:57.742Z,5.24
2019-05-02T22:46:43.125Z,5.23
2019-05-02T22:49:15.109Z,5.29
2019-05-02T22:51:45.788Z,5.26
2019-05-02T22:54:26.700Z,5.21
2019-05-02T22:56:48.446Z,5.23
2019-05-02T22:59:18.941Z,5.19
2019-05-02T23:01:49.410Z,5.23
2019-05-02T23:04:23.288Z,5.19
2019-05-02T23:06:52.914Z,5.19
2019-05-02T23:09:23.586Z,5.16
2019-05-02T23:11:54.077Z,5.24
2019-05-02T23:14:24.574Z,5.21
2019-05-02T23:16:55.097Z,5.22
2019-05-02T23:19:25.552Z,5.32
2019-05-02T23:21:56.009Z,5.35
2019-05-02T23:24:48.214Z,5.32
2019-05-02T23:27:35.023Z,5.31
2019-05-02T23:30:07.833Z,5.25
2019-05-02T23:32:38.324Z,5.31
2019-05-02T23:35:09.608Z,5.15
2019-05-02T23:37:41.813Z,5.17
2019-05-02T23:40:12.539Z,5.13
2019-05-02T23:42:43.037Z,5.25
2019-05-02T23:45:13.644Z,5.22
2019-05-02T23:47:44.118Z,5.27
2019-05-02T23:50:14.756Z,5.22
2019-05-02T23:52:45.147Z,5.21
2019-05-02T23:55:15.770Z,5.16
2019-05-02T23:57:46.252Z,5.14
